createdAt,value
2023-02-23T00:01:34.764Z,36.08
2023-02-23T00:04:37.427Z,34.88
2023-02-23T00:10:41.095Z,33.58
2023-02-23T00:13:44.523Z,33.53
2023-02-23T00:16:46.684Z,34.08
2023-02-23T00:19:48.575Z,35.85
2023-02-23T00:22:52.516Z,32.17
2023-02-23T00:25:54.382Z,35.78
2023-02-23T00:28:56.718Z,40.33
2023-02-23T00:31:58.749Z,34.92
2023-02-23T00:35:00.732Z,37.05
2023-02-23T00:38:02.593Z,37.30
2023-02-23T00:41:14.302Z,35.28
2023-02-23T00:44:16.718Z,37.40
2023-02-23T00:47:18.616Z,34.95
2023-02-23T00:50:20.621Z,37.95
2023-02-23T00:53:22.487Z,33.92
2023-02-23T00:59:26.985Z,34.70
2023-02-23T01:02:28.867Z,30.92
2023-02-23T01:05:34.970Z,32.63
2023-02-23T01:08:41.707Z,32.78
2023-02-23T01:11:43.682Z,33.47
2023-02-23T01:14:45.589Z,41.13
2023-02-23T01:17:47.878Z,34.78
2023-02-23T01:20:50.953Z,33.28
2023-02-23T01:23:53.898Z,36.80
2023-02-23T01:26:55.863Z,37.88
2023-02-23T01:29:57.787Z,33.20
2023-02-23T01:32:59.621Z,33.20
2023-02-23T01:36:01.559Z,31.65
2023-02-23T01:39:05.485Z,32.42
2023-02-23T01:42:13.554Z,34.33
2023-02-23T01:45:29.876Z,31.88
2023-02-23T01:48:36.308Z,34.50
2023-02-23T01:51:42.730Z,34.95
2023-02-23T01:54:49.913Z,34.03
2023-02-23T01:57:59.612Z,36.30
2023-02-23T02:01:01.753Z,36.55
2023-02-23T02:04:04.644Z,35.28
2023-02-23T02:07:07.743Z,33.40
2023-02-23T02:10:10.520Z,37.28
2023-02-23T02:13:17.445Z,35.83
2023-02-23T02:16:24.374Z,42.22
2023-02-23T02:19:52.098Z,38.95
2023-02-23T02:23:31.960Z,38.00
2023-02-23T02:26:52.018Z,37.75
2023-02-23T02:30:10.807Z,38.33
2023-02-23T02:33:32.405Z,37.03
2023-02-23T02:37:08.267Z,38.92
2023-02-23T02:40:37.737Z,35.55
2023-02-23T02:44:11.864Z,38.67
2023-02-23T02:47:22.444Z,36.70
2023-02-23T02:50:43.828Z,35.60
2023-02-23T02:53:58.461Z,37.70
2023-02-23T02:57:03.408Z,38.42
2023-02-23T03:00:07.206Z,35.55
2023-02-23T03:03:38.668Z,37.35
2023-02-23T03:06:56.506Z,34.17
2023-02-23T03:10:32.028Z,40.72
2023-02-23T03:13:54.140Z,32.50
2023-02-23T03:17:04.879Z,32.47
2023-02-23T03:20:15.526Z,34.83
2023-02-23T03:23:44.168Z,33.65
2023-02-23T03:27:09.420Z,29.50
2023-02-23T03:30:50.102Z,37.40
2023-02-23T03:33:59.694Z,29.35
2023-02-23T03:37:42.376Z,33.35
2023-02-23T03:40:49.071Z,28.88
2023-02-23T03:44:01.008Z,31.90
2023-02-23T03:47:05.741Z,29.73
2023-02-23T03:50:21.135Z,29.75
2023-02-23T03:53:39.361Z,27.90
2023-02-23T03:56:45.521Z,32.50
2023-02-23T03:59:55.496Z,30.75
2023-02-23T04:03:00.890Z,28.73
2023-02-23T04:06:07.476Z,32.25
2023-02-23T04:09:09.451Z,32.17
2023-02-23T04:12:14.982Z,31.70
2023-02-23T04:15:47.381Z,29.73
2023-02-23T04:18:50.238Z,23.73
2023-02-23T04:21:52.182Z,27.90
2023-02-23T04:24:54.212Z,27.35
2023-02-23T04:28:03.202Z,29.85
2023-02-23T04:31:05.343Z,29.25
2023-02-23T04:34:07.961Z,28.48
2023-02-23T04:40:12.842Z,27.98
2023-02-23T04:46:17.054Z,28.98
2023-02-23T04:49:19.118Z,31.85
2023-02-23T04:52:21.347Z,29.02
2023-02-23T04:55:25.508Z,26.77
2023-02-23T04:58:27.628Z,27.27
2023-02-23T05:01:29.903Z,27.42
2023-02-23T05:04:32.179Z,31.42
2023-02-23T05:07:36.233Z,26.55
2023-02-23T05:10:40.143Z,26.48
2023-02-23T05:13:42.334Z,27.88
2023-02-23T05:16:44.352Z,28.67
2023-02-23T05:19:46.350Z,27.65
2023-02-23T05:22:48.639Z,26.58
2023-02-23T05:25:50.645Z,30.33
2023-02-23T05:28:52.670Z,26.83
2023-02-23T05:31:54.752Z,27.38
2023-02-23T05:34:56.804Z,26.02
2023-02-23T05:37:58.904Z,29.80
2023-02-23T05:41:05.471Z,32.53
2023-02-23T05:44:07.569Z,32.60
2023-02-23T05:47:09.567Z,34.40
2023-02-23T05:50:12.059Z,31.08
2023-02-23T05:53:13.960Z,29.75
2023-02-23T05:56:17.610Z,35.55
2023-02-23T05:59:19.642Z,30.17
2023-02-23T06:02:21.797Z,28.23
2023-02-23T06:05:26.079Z,32.95
2023-02-23T06:08:28.077Z,31.05
2023-02-23T06:11:30.382Z,31.10
2023-02-23T06:14:34.782Z,30.30
2023-02-23T06:17:37.135Z,32.83
2023-02-23T06:20:40.372Z,31.70
2023-02-23T06:23:42.584Z,32.72
2023-02-23T06:26:44.634Z,30.83
2023-02-23T06:29:46.614Z,33.20
2023-02-23T06:32:48.649Z,30.13
2023-02-23T06:35:54.961Z,37.42
2023-02-23T06:38:58.181Z,35.95
2023-02-23T06:42:00.118Z,33.63
2023-02-23T06:45:02.912Z,32.00
2023-02-23T06:48:05.132Z,29.67
2023-02-23T06:51:07.232Z,34.53
2023-02-23T06:54:11.566Z,31.63
2023-02-23T06:57:13.391Z,33.58
2023-02-23T07:00:15.974Z,32.42
2023-02-23T07:06:20.268Z,33.72
2023-02-23T07:09:24.686Z,30.30
2023-02-23T07:12:26.717Z,37.85
2023-02-23T07:15:28.832Z,30.83
2023-02-23T07:18:31.230Z,38.03
2023-02-23T07:21:34.351Z,34.83
2023-02-23T07:24:36.346Z,34.03
2023-02-23T07:27:38.393Z,31.40
2023-02-23T07:30:40.658Z,35.55
2023-02-23T07:33:42.573Z,34.00
2023-02-23T07:36:44.574Z,33.13
2023-02-23T07:39:46.481Z,29.25
2023-02-23T07:42:48.331Z,29.58
2023-02-23T07:45:51.328Z,27.48
2023-02-23T07:48:53.407Z,25.88
2023-02-23T07:51:55.328Z,26.58
2023-02-23T07:54:57.275Z,26.92
2023-02-23T07:58:01.679Z,28.80
2023-02-23T08:01:04.215Z,24.77
2023-02-23T08:04:06.465Z,20.70
2023-02-23T08:07:08.504Z,21.63
2023-02-23T08:10:11.161Z,21.30
2023-02-23T08:13:13.182Z,20.77
2023-02-23T08:16:15.201Z,21.42
2023-02-23T08:22:19.181Z,23.30
2023-02-23T08:25:21.654Z,21.33
2023-02-23T08:28:23.613Z,21.02
2023-02-23T08:31:25.826Z,20.15
2023-02-23T08:37:30.758Z,17.98
2023-02-23T08:40:32.602Z,15.40
2023-02-23T08:43:34.484Z,19.27
2023-02-23T08:46:36.323Z,19.45
2023-02-23T08:49:38.232Z,20.50
2023-02-23T08:52:40.285Z,15.68
2023-02-23T08:55:42.296Z,15.88
2023-02-23T08:58:44.225Z,15.75
2023-02-23T09:01:46.884Z,14.82
2023-02-23T09:04:48.716Z,14.00
2023-02-23T09:07:52.890Z,14.73
2023-02-23T09:10:57.125Z,12.60
2023-02-23T09:13:59.122Z,14.30
2023-02-23T09:17:01.128Z,13.18
2023-02-23T09:20:05.812Z,14.10
2023-02-23T09:23:07.764Z,14.68
2023-02-23T09:26:10.825Z,14.13
2023-02-23T09:29:15.237Z,14.70
2023-02-23T09:32:17.285Z,13.48
2023-02-23T09:38:22.955Z,11.20
2023-02-23T09:41:40.896Z,11.55
2023-02-23T09:44:58.249Z,10.32
2023-02-23T09:48:03.200Z,8.77
2023-02-23T09:51:06.732Z,8.75
2023-02-23T09:54:13.110Z,8.40
2023-02-23T09:57:26.864Z,8.45
2023-02-23T10:00:30.775Z,9.82
2023-02-23T10:03:39.057Z,10.95
2023-02-23T10:06:44.809Z,11.85
2023-02-23T10:10:25.066Z,13.68
2023-02-23T10:13:51.061Z,12.30
2023-02-23T10:17:13.221Z,11.57
2023-02-23T10:20:36.961Z,10.77
2023-02-23T10:23:51.064Z,12.45
2023-02-23T10:26:56.786Z,11.55
2023-02-23T10:30:01.636Z,12.80
2023-02-23T10:33:25.222Z,10.43
2023-02-23T10:36:39.232Z,12.93
2023-02-23T10:39:42.159Z,13.00
2023-02-23T10:42:44.281Z,11.63
2023-02-23T10:45:51.327Z,13.50
2023-02-23T10:48:55.500Z,11.43
2023-02-23T10:51:57.366Z,13.02
2023-02-23T10:54:59.714Z,13.00
2023-02-23T10:58:20.400Z,11.40
2023-02-23T11:01:49.183Z,15.43
2023-02-23T11:05:00.994Z,13.95
2023-02-23T11:08:20.621Z,12.45
2023-02-23T11:11:24.441Z,14.25
2023-02-23T11:14:27.968Z,13.10
2023-02-23T11:17:33.448Z,16.73
2023-02-23T11:20:37.743Z,11.73
2023-02-23T11:23:41.286Z,13.70
2023-02-23T11:26:44.442Z,15.05
2023-02-23T11:29:48.412Z,14.65
2023-02-23T11:32:58.684Z,15.77
2023-02-23T11:36:21.614Z,14.48
2023-02-23T11:39:24.141Z,13.45
2023-02-23T11:42:31.143Z,12.00
2023-02-23T11:45:43.933Z,14.00
2023-02-23T11:48:57.924Z,12.98
2023-02-23T12:03:27.449Z,12.90
2023-02-23T12:06:35.680Z,12.85
2023-02-23T12:12:57.998Z,13.23
2023-02-23T12:16:33.984Z,10.52
2023-02-23T12:19:49.256Z,12.95
2023-02-23T12:23:23.678Z,13.00
2023-02-23T12:26:26.034Z,15.63
2023-02-23T12:29:50.769Z,15.10
2023-02-23T12:33:04.924Z,13.65
2023-02-23T12:36:12.370Z,15.65
2023-02-23T12:39:32.977Z,15.43
2023-02-23T12:42:40.596Z,13.77
2023-02-23T12:45:49.207Z,16.83
2023-02-23T12:49:21.678Z,15.90
2023-02-23T12:52:32.029Z,14.20
2023-02-23T12:55:36.625Z,11.27
2023-02-23T12:59:25.705Z,12.38
2023-02-23T13:02:40.968Z,11.55
2023-02-23T13:05:58.525Z,15.90
2023-02-23T13:09:34.456Z,13.07
2023-02-23T13:12:54.853Z,11.48
2023-02-23T13:16:17.387Z,12.90
2023-02-23T13:19:52.834Z,12.65
2023-02-23T13:23:33.045Z,14.82
2023-02-23T13:26:54.041Z,13.88
2023-02-23T13:29:57.269Z,14.38
2023-02-23T13:33:08.401Z,13.40
2023-02-23T13:36:10.522Z,14.20
2023-02-23T13:39:37.386Z,12.82
2023-02-23T13:43:16.868Z,11.63
2023-02-23T13:46:33.645Z,14.45
2023-02-23T13:49:47.718Z,13.45
2023-02-23T13:52:49.862Z,13.30
2023-02-23T13:55:51.986Z,15.15
2023-02-23T13:59:06.926Z,10.50
2023-02-23T14:02:35.975Z,13.00
2023-02-23T14:05:44.947Z,10.18
2023-02-23T14:08:57.598Z,11.25
2023-02-23T14:12:11.483Z,11.10
2023-02-23T14:15:25.590Z,11.65
2023-02-23T14:18:31.194Z,11.00
2023-02-23T14:22:01.021Z,10.25
2023-02-23T14:25:34.999Z,10.60
2023-02-23T14:28:40.092Z,8.80
2023-02-23T14:31:53.915Z,10.68
2023-02-23T14:35:04.628Z,8.40
2023-02-23T14:38:46.916Z,11.27
2023-02-23T14:41:55.552Z,11.02
2023-02-23T14:45:03.648Z,8.13
2023-02-23T14:48:10.827Z,6.93
2023-02-23T14:51:22.345Z,9.70
2023-02-23T14:54:34.233Z,8.73
2023-02-23T14:57:37.448Z,5.35
2023-02-23T15:00:43.900Z,6.18
2023-02-23T15:04:09.622Z,7.47
2023-02-23T15:07:36.898Z,7.63
2023-02-23T15:10:44.021Z,8.10
2023-02-23T15:13:51.163Z,5.88
2023-02-23T15:16:53.554Z,9.35
2023-02-23T15:20:14.922Z,8.55
2023-02-23T15:23:20.652Z,7.30
2023-02-23T15:26:36.802Z,9.10
2023-02-23T15:29:38.981Z,10.27
2023-02-23T15:32:48.472Z,7.97
2023-02-23T15:36:03.819Z,9.32
2023-02-23T15:39:12.369Z,8.88
2023-02-23T15:42:18.669Z,11.75
2023-02-23T15:45:38.980Z,12.85
2023-02-23T15:48:48.756Z,7.47
2023-02-23T15:51:57.565Z,9.25
2023-02-23T15:55:06.512Z,8.90
2023-02-23T15:58:24.530Z,10.80
2023-02-23T16:01:29.038Z,10.30
2023-02-23T16:04:33.894Z,13.02
2023-02-23T16:07:41.681Z,14.10
2023-02-23T16:10:46.591Z,17.08
2023-02-23T16:13:53.848Z,11.95
2023-02-23T16:17:10.422Z,15.15
2023-02-23T16:20:26.504Z,9.48
2023-02-23T16:23:35.527Z,10.13
2023-02-23T16:26:49.212Z,9.35
2023-02-23T16:30:04.931Z,13.02
2023-02-23T16:33:14.808Z,9.40
2023-02-23T16:36:22.189Z,10.82
2023-02-23T16:39:27.138Z,13.10
2023-02-23T16:42:32.549Z,11.18
2023-02-23T16:45:34.533Z,12.00
2023-02-23T16:48:36.869Z,12.32
2023-02-23T16:51:39.790Z,13.88
2023-02-23T16:54:43.087Z,22.08
2023-02-23T16:57:49.772Z,50.55
2023-02-23T17:00:52.884Z,31.73
2023-02-23T17:03:55.020Z,12.75
2023-02-23T17:06:57.207Z,12.57
2023-02-23T17:09:59.630Z,12.07
2023-02-23T17:13:05.421Z,12.23
2023-02-23T17:16:14.376Z,11.23
2023-02-23T17:22:18.713Z,9.27
2023-02-23T17:25:23.112Z,14.65
2023-02-23T17:28:31.932Z,13.98
2023-02-23T17:31:34.061Z,15.00
2023-02-23T17:34:36.370Z,16.60
2023-02-23T17:40:45.966Z,16.10
2023-02-23T17:43:47.913Z,18.02
2023-02-23T17:46:49.935Z,17.15
2023-02-23T17:49:51.835Z,20.60
2023-02-23T17:52:54.637Z,23.30
2023-02-23T17:56:00.058Z,16.52
2023-02-23T17:59:02.579Z,21.65
2023-02-23T18:02:15.432Z,19.27
2023-02-23T18:05:19.887Z,11.85
2023-02-23T18:08:23.230Z,13.93
2023-02-23T18:11:25.431Z,13.98
2023-02-23T18:17:40.090Z,12.93
2023-02-23T18:20:52.014Z,15.75
2023-02-23T18:23:53.966Z,21.40
2023-02-23T18:26:56.796Z,24.45
2023-02-23T18:30:00.007Z,18.63
2023-02-23T18:33:02.110Z,16.52
2023-02-23T18:36:15.685Z,13.13
2023-02-23T18:39:17.876Z,15.88
2023-02-23T18:45:28.584Z,16.17
2023-02-23T18:48:30.572Z,16.23
2023-02-23T18:51:32.881Z,14.40
2023-02-23T18:54:35.600Z,17.55
2023-02-23T18:57:44.728Z,18.67
2023-02-23T19:00:46.824Z,15.77
2023-02-23T19:06:57.096Z,15.90
2023-02-23T19:10:06.111Z,19.00
2023-02-23T19:13:07.965Z,19.10
2023-02-23T19:16:10.203Z,22.48
2023-02-23T19:19:12.709Z,20.50
2023-02-23T19:22:15.052Z,22.13
2023-02-23T19:25:25.084Z,15.30
2023-02-23T19:28:26.938Z,21.30
2023-02-23T19:31:29.665Z,17.20
2023-02-23T19:34:31.778Z,15.77
2023-02-23T19:37:33.999Z,15.55
2023-02-23T19:40:39.016Z,15.55
2023-02-23T19:43:42.301Z,13.70
2023-02-23T19:46:44.600Z,15.65
2023-02-23T19:52:48.749Z,16.92
2023-02-23T19:56:06.528Z,19.20
2023-02-23T19:59:08.470Z,18.02
2023-02-23T20:02:15.804Z,19.45
2023-02-23T20:05:17.822Z,20.35
2023-02-23T20:08:20.169Z,20.13
2023-02-23T20:11:24.390Z,17.73
2023-02-23T20:14:26.523Z,20.48
2023-02-23T20:17:28.709Z,15.05
2023-02-23T20:20:30.734Z,17.23
2023-02-23T20:23:32.693Z,17.25
2023-02-23T20:26:36.209Z,19.30
2023-02-23T20:29:47.247Z,19.60
2023-02-23T20:35:58.155Z,21.02
2023-02-23T20:39:06.701Z,19.45
2023-02-23T20:42:09.906Z,18.05
2023-02-23T20:45:22.867Z,20.63
2023-02-23T20:48:25.633Z,20.13
2023-02-23T20:51:29.863Z,15.18
2023-02-23T20:54:31.949Z,17.38
2023-02-23T20:57:37.224Z,17.35
2023-02-23T21:00:41.608Z,17.85
2023-02-23T21:03:44.354Z,20.67
2023-02-23T21:09:49.008Z,16.60
2023-02-23T21:12:51.119Z,12.90
2023-02-23T21:15:57.800Z,15.45
2023-02-23T21:19:00.123Z,20.02
2023-02-23T21:22:02.239Z,17.98
2023-02-23T21:25:04.504Z,14.93
2023-02-23T21:28:06.453Z,14.35
2023-02-23T21:31:09.691Z,15.82
2023-02-23T21:34:13.089Z,14.43
2023-02-23T21:37:16.047Z,17.38
2023-02-23T21:40:19.691Z,15.13
2023-02-23T21:43:24.676Z,15.93
2023-02-23T21:46:27.542Z,18.42
2023-02-23T21:49:33.097Z,19.30
2023-02-23T21:52:34.991Z,17.48
2023-02-23T21:55:39.959Z,15.77
2023-02-23T21:58:47.262Z,17.52
2023-02-23T22:01:49.263Z,21.27
2023-02-23T22:04:54.170Z,17.27
2023-02-23T22:07:56.158Z,18.08
2023-02-23T22:10:58.133Z,19.23
2023-02-23T22:14:00.391Z,16.52
2023-02-23T22:17:02.462Z,17.60
2023-02-23T22:20:05.428Z,17.48
2023-02-23T22:23:07.366Z,15.63
2023-02-23T22:26:09.812Z,16.55
2023-02-23T22:29:11.689Z,19.77
2023-02-23T22:32:13.786Z,17.73
2023-02-23T22:35:15.965Z,22.33
2023-02-23T22:38:17.894Z,19.35
2023-02-23T22:41:20.140Z,20.27
2023-02-23T22:44:23.181Z,21.58
2023-02-23T22:47:25.172Z,22.35
2023-02-23T22:50:30.472Z,22.90
2023-02-23T22:53:32.467Z,25.75
2023-02-23T22:56:35.281Z,23.95
2023-02-23T22:59:37.659Z,23.50
2023-02-23T23:02:39.668Z,26.58
2023-02-23T23:05:48.261Z,28.60
2023-02-23T23:08:52.764Z,25.27
2023-02-23T23:11:54.838Z,25.42
2023-02-23T23:14:57.006Z,27.45
2023-02-23T23:17:59.012Z,26.10
2023-02-23T23:21:04.247Z,26.63
2023-02-23T23:24:07.364Z,27.05
2023-02-23T23:27:09.406Z,25.75
2023-02-23T23:30:13.136Z,25.95
2023-02-23T23:33:15.501Z,28.25
2023-02-23T23:36:25.559Z,30.70
2023-02-23T23:39:28.102Z,27.80
2023-02-23T23:42:30.121Z,25.70
2023-02-23T23:45:33.425Z,26.67
2023-02-23T23:48:35.567Z,30.08
2023-02-23T23:51:41.024Z,28.27
2023-02-23T23:54:43.296Z,30.15
2023-02-23T23:57:45.243Z,26.77
